WLH weather

Walaha Airport
Walaha, Penama, Vanuatu

Public forecast

Using degrees Celsius for public forecast. Weather courtesy of forecast.io.

METAR (pilot weather report)

Report is more than 6 hours old.

Closest report is Longana Airport, 17.2 nm (31.8 km) ENE. Retrieved 2019/06/01 21:00 UTC (15 days ago):

NVSG 012100Z NI

TAF (pilot weather forecast)

Forecast is more than 12 hours old.

Closest forecast is Longana Airport, 17.2 nm (31.8 km) ENE. Retrieved 2019/06/16 00:19 UTC (1 day ago):

TAF NVSG 162220Z 1700/1724 12010G20KT 9999 SCT020 BKN040 PROB30 INTER 1700/1706 9000 SHRA BKN017